Time;durP1;ratioP1;P1;durP2;ratioP2;P2;SDS_P1;SDS_P2;PMS_P1;PMS_P2;Temp;Humidity;BMP_temperature;BMP_pressure;BME280_temperature;BME280_humidity;BME280_pressure;Samples;Min_cycle;Max_cycle;Signal;HPM_P1;HPM_P2
2024/04/20 00:01:24;;;;;;;25.67;24.27;;;;;;;;;;5494151;26;20068;-68
2024/04/20 00:04:09;;;;;;;26.75;25.35;;;;;;;;;;5498525;25;20005;-68
2024/04/20 00:06:55;;;;;;;26.45;25.05;;;;;;;;;;5493394;26;20005;-68
2024/04/20 00:09:41;;;;;;;27.90;26.45;;;;;;;;;;5495884;26;19993;-69
2024/04/20 00:12:26;;;;;;;26.38;24.98;;;;;;;;;;5492432;26;19998;-68
2024/04/20 00:15:12;;;;;;;31.88;30.17;;;;;;;;;;5490651;25;20009;-68
2024/04/20 00:17:57;;;;;;;26.40;25.00;;;;;;;;;;5494885;26;20364;-67
2024/04/20 00:20:43;;;;;;;26.20;24.80;;;;;;;;;;5459823;26;20410;-67
2024/04/20 00:23:29;;;;;;;28.30;26.80;;;;;;;;;;5495706;26;20002;-67
2024/04/20 00:26:14;;;;;;;27.98;26.48;;;;;;;;;;5498934;26;19998;-68
2024/04/20 00:29:00;;;;;;;27.23;25.83;;;;;;;;;;5491516;26;20008;-68
2024/04/20 00:31:46;;;;;;;26.40;25.00;;;;;;;;;;5500059;26;20419;-69
2024/04/20 00:34:31;;;;;;;29.70;28.17;;;;;;;;;;5490677;26;20122;-67
2024/04/20 00:37:17;;;;;;;29.02;27.42;;;;;;;;;;5495257;26;20004;-68
2024/04/20 00:40:03;;;;;;;28.40;26.90;;;;;;;;;;5494721;26;20427;-67
2024/04/20 00:42:48;;;;;;;28.48;26.88;;;;;;;;;;5493420;26;20002;-67
2024/04/20 00:45:34;;;;;;;26.45;25.05;;;;;;;;;;5492984;26;20002;-67
2024/04/20 00:48:21;;;;;;;28.42;26.92;;;;;;;;;;5499810;26;20015;-67
2024/04/20 00:51:07;;;;;;;27.60;26.13;;;;;;;;;;5498564;26;19993;-68
2024/04/20 00:53:55;;;;;;;31.70;30.10;;;;;;;;;;5494287;26;20002;-68
2024/04/20 00:56:42;;;;;;;31.90;30.25;;;;;;;;;;5494399;25;20029;-67
2024/04/20 00:59:31;;;;;;;31.85;30.23;;;;;;;;;;5488064;26;20005;-67
2024/04/20 01:02:17;;;;;;;30.73;29.13;;;;;;;;;;5492982;26;19998;-68
2024/04/20 01:05:03;;;;;;;31.83;30.15;;;;;;;;;;5494313;26;20496;-67
2024/04/20 01:07:48;;;;;;;34.45;32.70;;;;;;;;;;5491195;26;20533;-68
2024/04/20 01:10:34;;;;;;;35.72;33.88;;;;;;;;;;5467296;26;20039;-68
2024/04/20 01:13:27;;;;;;;42.30;40.15;;;;;;;;;;5495738;26;19998;-68
2024/04/20 01:16:13;;;;;;;44.95;42.42;;;;;;;;;;5497157;25;20015;-67
2024/04/20 01:18:59;;;;;;;44.50;42.25;;;;;;;;;;5494491;26;20016;-67
2024/04/20 01:21:46;;;;;;;43.22;41.03;;;;;;;;;;5493709;26;20005;-68
2024/04/20 01:24:33;;;;;;;44.50;42.22;;;;;;;;;;5492677;26;20024;-68
2024/04/20 01:27:18;;;;;;;39.40;37.38;;;;;;;;;;5499052;26;20326;-67
2024/04/20 01:30:08;;;;;;;46.33;44.00;;;;;;;;;;5494725;26;20078;-67
2024/04/20 01:32:53;;;;;;;48.90;46.42;;;;;;;;;;5486233;26;20010;-69
2024/04/20 01:35:40;;;;;;;43.45;41.25;;;;;;;;;;5495980;26;20394;-68
2024/04/20 01:38:26;;;;;;;46.42;44.08;;;;;;;;;;5495919;26;20013;-67
2024/04/20 01:41:11;;;;;;;48.05;45.42;;;;;;;;;;5491776;26;20002;-69
2024/04/20 01:43:57;;;;;;;49.10;46.63;;;;;;;;;;5493988;25;20006;-67
2024/04/20 01:46:43;;;;;;;40.38;38.30;;;;;;;;;;5500407;26;20020;-68
2024/04/20 01:49:29;;;;;;;43.20;41.00;;;;;;;;;;5495681;26;20002;-67
2024/04/20 01:52:15;;;;;;;45.92;43.58;;;;;;;;;;5499545;25;20005;-67
2024/04/20 01:55:00;;;;;;;40.28;38.17;;;;;;;;;;5492597;26;20006;-67
2024/04/20 01:57:46;;;;;;;43.22;41.03;;;;;;;;;;5498889;26;20046;-69
2024/04/20 02:00:32;;;;;;;48.90;46.45;;;;;;;;;;5506005;25;20014;-67
2024/04/20 02:03:17;;;;;;;47.70;45.30;;;;;;;;;;5495600;26;20001;-68
2024/04/20 02:06:03;;;;;;;50.22;47.70;;;;;;;;;;5491163;26;20016;-68
2024/04/20 02:08:49;;;;;;;58.13;55.22;;;;;;;;;;5493044;26;20057;-67
2024/04/20 02:11:34;;;;;;;64.22;61.00;;;;;;;;;;5495331;26;20020;-68
2024/04/20 02:14:21;;;;;;;63.63;60.42;;;;;;;;;;5495293;26;19998;-69
2024/04/20 02:17:06;;;;;;;68.72;65.28;;;;;;;;;;5492808;26;20010;-68
2024/04/20 02:19:52;;;;;;;67.00;63.65;;;;;;;;;;5499443;26;20005;-68
2024/04/20 02:22:38;;;;;;;61.72;58.63;;;;;;;;;;5494799;25;20021;-67
2024/04/20 02:25:23;;;;;;;62.33;59.22;;;;;;;;;;5491309;26;19997;-67
2024/04/20 02:28:09;;;;;;;62.97;59.83;;;;;;;;;;5471886;26;20039;-67
2024/04/20 02:30:55;;;;;;;67.05;63.72;;;;;;;;;;5492559;26;20010;-68
2024/04/20 02:33:40;;;;;;;62.85;59.70;;;;;;;;;;5494627;26;20013;-68
2024/04/20 02:36:27;;;;;;;66.03;62.72;;;;;;;;;;5497254;26;20029;-68
2024/04/20 02:39:12;;;;;;;61.20;58.10;;;;;;;;;;5498195;26;20005;-68
2024/04/20 02:41:58;;;;;;;59.33;56.35;;;;;;;;;;5496670;25;20024;-67
2024/04/20 02:44:44;;;;;;;59.00;56.05;;;;;;;;;;5500099;26;20017;-68
2024/04/20 02:47:30;;;;;;;51.92;49.30;;;;;;;;;;5499138;26;20002;-68
2024/04/20 02:50:16;;;;;;;56.25;53.42;;;;;;;;;;5499618;26;20326;-69
2024/04/20 02:53:02;;;;;;;56.55;53.70;;;;;;;;;;5499388;26;20046;-68
2024/04/20 02:55:48;;;;;;;58.08;55.17;;;;;;;;;;5498756;26;20021;-67
2024/04/20 02:58:34;;;;;;;53.38;50.47;;;;;;;;;;5470917;26;20513;-68
2024/04/20 03:01:19;;;;;;;57.47;54.47;;;;;;;;;;5496501;26;20630;-68
2024/04/20 03:04:05;;;;;;;52.65;49.97;;;;;;;;;;5492391;25;20002;-69
2024/04/20 03:06:50;;;;;;;52.00;49.33;;;;;;;;;;5492988;26;20001;-69
2024/04/20 03:09:36;;;;;;;56.47;53.63;;;;;;;;;;5496159;26;20009;-68
2024/04/20 03:12:23;;;;;;;58.28;55.35;;;;;;;;;;5497900;26;20431;-69
2024/04/20 03:15:08;;;;;;;57.20;54.33;;;;;;;;;;5493194;26;20335;-69
2024/04/20 03:17:54;;;;;;;58.88;55.92;;;;;;;;;;5491655;26;20072;-69
2024/04/20 03:20:40;;;;;;;60.30;57.25;;;;;;;;;;5503014;25;20105;-68
2024/04/20 03:23:28;;;;;;;62.97;59.83;;;;;;;;;;5496884;26;20006;-68
2024/04/20 03:26:14;;;;;;;58.15;55.22;;;;;;;;;;5498482;26;20010;-69
2024/04/20 03:29:00;;;;;;;59.35;56.25;;;;;;;;;;5503789;26;20014;-68
2024/04/20 03:31:45;;;;;;;60.63;57.58;;;;;;;;;;5495488;26;20010;-68
2024/04/20 03:34:31;;;;;;;65.38;61.97;;;;;;;;;;5497923;26;20002;-69
2024/04/20 03:37:19;;;;;;;63.42;60.25;;;;;;;;;;5470534;26;20434;-67
2024/04/20 03:40:06;;;;;;;62.97;59.83;;;;;;;;;;5506941;26;20014;-69
2024/04/20 03:42:51;;;;;;;63.42;60.25;;;;;;;;;;5497228;26;20434;-69
2024/04/20 03:45:37;;;;;;;61.38;58.25;;;;;;;;;;5503406;26;20005;-69
2024/04/20 03:48:24;;;;;;;65.65;62.35;;;;;;;;;;5497612;26;20013;-68
2024/04/20 03:51:10;;;;;;;64.40;61.15;;;;;;;;;;5499217;26;20020;-69
2024/04/20 03:53:55;;;;;;;61.58;58.47;;;;;;;;;;5496605;26;20001;-67
2024/04/20 03:56:41;;;;;;;65.65;62.35;;;;;;;;;;5506499;26;20078;-68
2024/04/20 03:59:26;;;;;;;65.10;61.85;;;;;;;;;;5500940;26;20004;-68
2024/04/20 04:02:12;;;;;;;56.15;53.15;;;;;;;;;;5497627;26;20019;-69
2024/04/20 04:04:58;;;;;;;54.33;51.60;;;;;;;;;;5497452;26;20026;-68
2024/04/20 04:07:43;;;;;;;45.75;43.45;;;;;;;;;;5502796;26;20737;-69
2024/04/20 04:10:29;;;;;;;44.72;42.42;;;;;;;;;;5470566;25;20075;-69
2024/04/20 04:13:16;;;;;;;41.90;39.78;;;;;;;;;;5495596;26;20013;-67
2024/04/20 04:16:02;;;;;;;49.55;47.05;;;;;;;;;;5496132;26;20006;-69
2024/04/20 04:18:48;;;;;;;47.95;45.55;;;;;;;;;;5498095;26;20012;-69
2024/04/20 04:21:34;;;;;;;44.67;42.40;;;;;;;;;;5504248;26;20074;-68
2024/04/20 04:24:20;;;;;;;38.15;36.25;;;;;;;;;;5500953;26;20493;-69
2024/04/20 04:27:13;;;;;;;39.53;37.53;;;;;;;;;;5498869;26;20006;-67
2024/04/20 04:29:59;;;;;;;38.58;36.58;;;;;;;;;;5499358;26;20002;-69
2024/04/20 04:32:44;;;;;;;38.08;36.10;;;;;;;;;;5474375;26;20381;-69
2024/04/20 04:35:30;;;;;;;43.15;40.75;;;;;;;;;;5497543;26;20066;-69
2024/04/20 04:38:15;;;;;;;44.45;41.75;;;;;;;;;;5499504;26;20095;-67
2024/04/20 04:41:01;;;;;;;45.17;42.88;;;;;;;;;;5499774;26;20002;-68
2024/04/20 04:43:47;;;;;;;43.97;41.65;;;;;;;;;;5497745;26;20017;-69
2024/04/20 04:46:32;;;;;;;43.83;41.60;;;;;;;;;;5499444;26;19998;-68
2024/04/20 04:49:18;;;;;;;44.85;42.55;;;;;;;;;;5504503;26;20493;-68
2024/04/20 04:52:04;;;;;;;45.95;43.63;;;;;;;;;;5500649;26;20006;-67
2024/04/20 04:54:49;;;;;;;45.72;43.38;;;;;;;;;;5498159;25;20013;-67
2024/04/20 04:57:35;;;;;;;50.38;47.83;;;;;;;;;;5501155;26;20073;-67
2024/04/20 05:00:20;;;;;;;41.05;38.95;;;;;;;;;;5495784;25;20406;-68
2024/04/20 05:03:06;;;;;;;43.70;41.47;;;;;;;;;;5478509;26;20013;-70
2024/04/20 05:05:52;;;;;;;42.50;40.33;;;;;;;;;;5502128;25;20074;-70
2024/04/20 05:08:37;;;;;;;37.30;35.38;;;;;;;;;;5497033;26;20618;-71
2024/04/20 05:11:24;;;;;;;41.25;39.05;;;;;;;;;;5495903;26;20005;-69
2024/04/20 05:14:10;;;;;;;39.17;37.08;;;;;;;;;;5498844;26;20005;-69
2024/04/20 05:16:55;;;;;;;35.08;33.28;;;;;;;;;;5494732;26;20010;-71
2024/04/20 05:19:41;;;;;;;36.70;34.80;;;;;;;;;;5497363;26;20081;-72
2024/04/20 05:22:27;;;;;;;33.10;31.30;;;;;;;;;;5494147;26;20010;-72
2024/04/20 05:25:13;;;;;;;32.50;30.80;;;;;;;;;;5472735;26;20024;-72
2024/04/20 05:27:58;;;;;;;27.52;25.77;;;;;;;;;;5452399;26;20013;-70
2024/04/20 05:30:45;;;;;;;26.85;25.45;;;;;;;;;;5499137;26;20470;-71
2024/04/20 05:33:31;;;;;;;28.45;26.95;;;;;;;;;;5496604;26;20013;-70
2024/04/20 05:36:16;;;;;;;28.88;27.38;;;;;;;;;;5500557;26;20529;-69
2024/04/20 05:39:02;;;;;;;27.80;26.30;;;;;;;;;;5473269;25;20688;-72
2024/04/20 05:41:47;;;;;;;27.83;26.33;;;;;;;;;;5497774;26;20511;-71
2024/04/20 05:44:33;;;;;;;28.48;26.98;;;;;;;;;;5494451;26;20078;-70
2024/04/20 05:47:19;;;;;;;26.83;25.42;;;;;;;;;;5493719;26;20006;-69
2024/04/20 05:50:07;;;;;;;31.27;29.67;;;;;;;;;;5499853;26;21465;-68
2024/04/20 05:52:53;;;;;;;30.02;28.42;;;;;;;;;;5493610;25;20013;-69
2024/04/20 05:55:40;;;;;;;30.63;29.02;;;;;;;;;;5496376;26;19998;-67
2024/04/20 05:58:26;;;;;;;31.98;30.27;;;;;;;;;;5499873;26;20265;-68
2024/04/20 06:01:16;;;;;;;30.83;29.23;;;;;;;;;;5503803;26;20001;-68
2024/04/20 06:04:04;;;;;;;33.47;31.75;;;;;;;;;;5499082;26;20021;-69
2024/04/20 06:06:50;;;;;;;35.42;33.63;;;;;;;;;;5467496;26;20010;-70
2024/04/20 06:09:36;;;;;;;37.28;35.38;;;;;;;;;;5498159;26;20020;-69
2024/04/20 06:12:21;;;;;;;39.92;37.83;;;;;;;;;;5493037;26;20002;-68
2024/04/20 06:15:08;;;;;;;36.72;34.83;;;;;;;;;;5499543;26;20021;-68
2024/04/20 06:17:54;;;;;;;41.47;39.35;;;;;;;;;;5501068;25;20001;-67
2024/04/20 06:20:42;;;;;;;41.92;39.80;;;;;;;;;;5499578;26;20063;-67
2024/04/20 06:23:28;;;;;;;42.42;40.28;;;;;;;;;;5496110;25;20013;-68
2024/04/20 06:26:14;;;;;;;38.65;36.65;;;;;;;;;;5472972;26;20469;-68
2024/04/20 06:28:59;;;;;;;36.85;34.95;;;;;;;;;;5474868;26;20074;-68
2024/04/20 06:31:45;;;;;;;39.20;37.10;;;;;;;;;;5498550;26;20419;-69
2024/04/20 06:34:31;;;;;;;38.13;36.15;;;;;;;;;;5495587;26;20090;-68
2024/04/20 06:37:17;;;;;;;39.67;37.67;;;;;;;;;;5497117;26;20089;-70
2024/04/20 06:40:03;;;;;;;39.53;37.28;;;;;;;;;;5479993;26;20024;-68
2024/04/20 06:42:49;;;;;;;39.80;37.58;;;;;;;;;;5498014;26;20011;-67
2024/04/20 06:45:36;;;;;;;36.22;34.33;;;;;;;;;;5499794;26;20006;-68
2024/04/20 06:48:21;;;;;;;32.25;30.52;;;;;;;;;;5503991;26;19997;-68
2024/04/20 06:51:07;;;;;;;28.30;26.38;;;;;;;;;;5502787;26;20012;-68
2024/04/20 06:53:53;;;;;;;27.98;26.48;;;;;;;;;;5499881;26;20009;-68
2024/04/20 06:56:38;;;;;;;33.85;32.05;;;;;;;;;;5500554;26;20014;-69
2024/04/20 06:59:25;;;;;;;44.60;42.30;;;;;;;;;;5499075;26;19998;-68
2024/04/20 07:02:12;;;;;;;37.47;35.58;;;;;;;;;;5494388;26;20445;-67
2024/04/20 07:04:58;;;;;;;60.70;57.63;;;;;;;;;;5500358;26;19997;-68
2024/04/20 07:07:44;;;;;;;58.78;55.78;;;;;;;;;;5496964;26;20024;-68
2024/04/20 07:10:30;;;;;;;57.83;54.92;;;;;;;;;;5495324;26;20009;-68
2024/04/20 07:13:16;;;;;;;71.70;68.10;;;;;;;;;;5504299;25;20009;-68
2024/04/20 07:16:01;;;;;;;66.18;62.88;;;;;;;;;;5502232;26;20395;-68
2024/04/20 07:18:47;;;;;;;47.05;44.42;;;;;;;;;;5471301;26;20005;-69
2024/04/20 07:21:33;;;;;;;57.08;54.17;;;;;;;;;;5500489;26;20019;-68
2024/04/20 07:24:19;;;;;;;57.40;54.50;;;;;;;;;;5499072;26;20001;-69
2024/04/20 07:27:05;;;;;;;58.75;55.83;;;;;;;;;;5499956;26;20016;-69
2024/04/20 07:29:51;;;;;;;67.85;64.45;;;;;;;;;;5500327;26;20017;-69
2024/04/20 07:32:36;;;;;;;65.45;62.15;;;;;;;;;;5498478;26;20021;-68
2024/04/20 07:35:22;;;;;;;68.43;65.03;;;;;;;;;;5500564;26;20411;-68
2024/04/20 07:38:08;;;;;;;68.05;64.65;;;;;;;;;;5498648;26;20056;-69
2024/04/20 07:40:53;;;;;;;93.40;88.80;;;;;;;;;;5500979;26;19993;-70
2024/04/20 07:43:42;;;;;;;65.88;62.50;;;;;;;;;;5497050;26;20025;-71
2024/04/20 07:46:27;;;;;;;66.00;62.70;;;;;;;;;;5498200;26;20362;-69
2024/04/20 07:49:13;;;;;;;70.20;66.68;;;;;;;;;;5501663;26;20020;-69
2024/04/20 07:51:59;;;;;;;51.72;49.05;;;;;;;;;;5472258;26;20009;-69
2024/04/20 07:54:44;;;;;;;49.95;47.40;;;;;;;;;;5475903;26;20170;-68
2024/04/20 07:57:30;;;;;;;56.90;54.05;;;;;;;;;;5500300;26;20006;-69
2024/04/20 08:00:16;;;;;;;58.08;55.17;;;;;;;;;;5496911;26;20057;-69
2024/04/20 08:03:02;;;;;;;64.38;60.85;;;;;;;;;;5501401;26;19998;-68
2024/04/20 08:05:48;;;;;;;55.15;52.35;;;;;;;;;;5499203;26;20014;-68
2024/04/20 08:08:33;;;;;;;66.80;63.50;;;;;;;;;;5502820;26;20221;-68
2024/04/20 08:11:19;;;;;;;49.03;46.53;;;;;;;;;;5493472;26;20013;-68
2024/04/20 08:14:05;;;;;;;44.63;42.35;;;;;;;;;;5501311;26;20002;-69
2024/04/20 08:16:50;;;;;;;42.05;39.80;;;;;;;;;;5501652;25;20124;-69
2024/04/20 08:19:36;;;;;;;53.60;50.90;;;;;;;;;;5497296;26;20051;-69
2024/04/20 08:22:22;;;;;;;59.50;56.50;;;;;;;;;;5497892;26;20014;-68
2024/04/20 08:25:07;;;;;;;78.97;75.00;;;;;;;;;;5486025;26;20017;-68
2024/04/20 08:27:53;;;;;;;68.95;65.50;;;;;;;;;;5487049;26;20051;-70
2024/04/20 08:30:41;;;;;;;141.15;134.18;;;;;;;;;;5504233;26;20020;-68
2024/04/20 08:33:27;;;;;;;171.63;163.20;;;;;;;;;;5497437;26;19998;-68
2024/04/20 08:36:12;;;;;;;217.80;207.10;;;;;;;;;;5502092;26;20009;-68
2024/04/20 08:38:58;;;;;;;86.63;82.30;;;;;;;;;;5497671;26;20001;-69
2024/04/20 08:42:00;;;;;;;82.70;78.50;;;;;;;;;;5499251;26;20374;-69
2024/04/20 08:44:48;;;;;;;206.55;196.25;;;;;;;;;;5499168;26;21314;-69
2024/04/20 08:47:34;;;;;;;166.07;157.88;;;;;;;;;;5494403;26;19998;-69
2024/04/20 08:50:22;;;;;;;154.05;146.20;;;;;;;;;;5495570;26;19998;-69
2024/04/20 08:53:09;;;;;;;110.97;105.35;;;;;;;;;;5500521;26;20713;-69
2024/04/20 08:55:54;;;;;;;201.68;191.70;;;;;;;;;;5475864;26;20006;-69
2024/04/20 08:58:40;;;;;;;121.28;114.95;;;;;;;;;;5491284;26;19993;-69
2024/04/20 09:01:30;;;;;;;132.48;125.85;;;;;;;;;;5501001;25;20024;-69
2024/04/20 09:04:17;;;;;;;208.37;198.10;;;;;;;;;;5464726;26;20079;-69
2024/04/20 09:07:03;;;;;;;101.53;96.50;;;;;;;;;;5491867;26;19997;-69
2024/04/20 09:09:49;;;;;;;109.95;104.53;;;;;;;;;;5488904;26;20055;-69
2024/04/20 09:12:35;;;;;;;104.40;99.15;;;;;;;;;;5491804;25;20020;-69
2024/04/20 09:15:20;;;;;;;175.98;167.18;;;;;;;;;;5510463;25;20111;-69
2024/04/20 09:18:06;;;;;;;133.43;126.82;;;;;;;;;;5494191;26;20107;-69
2024/04/20 09:20:53;;;;;;;112.68;106.90;;;;;;;;;;5485052;26;20021;-68
2024/04/20 09:23:38;;;;;;;113.13;107.57;;;;;;;;;;5491505;26;20783;-68
2024/04/20 09:26:24;;;;;;;111.78;105.63;;;;;;;;;;5495018;26;20012;-68
2024/04/20 09:29:10;;;;;;;116.68;110.93;;;;;;;;;;5489882;26;19997;-68
2024/04/20 09:31:55;;;;;;;97.18;92.28;;;;;;;;;;5499275;26;19993;-69
2024/04/20 09:34:43;;;;;;;115.18;109.47;;;;;;;;;;5489041;26;19995;-68
2024/04/20 09:37:28;;;;;;;95.60;90.90;;;;;;;;;;5489028;26;20005;-68
2024/04/20 09:40:14;;;;;;;95.75;91.00;;;;;;;;;;5491203;26;20394;-69
2024/04/20 09:43:02;;;;;;;88.70;84.28;;;;;;;;;;5492435;26;20446;-69
2024/04/20 09:45:50;;;;;;;107.32;102.03;;;;;;;;;;5487803;26;19998;-69
2024/04/20 09:48:37;;;;;;;73.93;70.22;;;;;;;;;;5498049;26;20003;-69
2024/04/20 09:51:28;;;;;;;86.13;81.85;;;;;;;;;;5502119;25;20021;-68
2024/04/20 09:54:19;;;;;;;73.55;69.90;;;;;;;;;;5502919;26;20016;-69
2024/04/20 09:57:07;;;;;;;74.35;70.65;;;;;;;;;;5499734;26;20073;-69
2024/04/20 09:59:55;;;;;;;63.25;60.10;;;;;;;;;;5502498;26;20020;-70
2024/04/20 10:02:42;;;;;;;62.53;59.40;;;;;;;;;;5500113;26;20450;-69
2024/04/20 10:05:30;;;;;;;59.65;56.63;;;;;;;;;;5501700;26;20078;-69
2024/04/20 10:08:17;;;;;;;90.57;86.07;;;;;;;;;;5465348;26;20008;-68
2024/04/20 10:11:02;;;;;;;73.88;70.20;;;;;;;;;;5491905;26;20429;-69
2024/04/20 10:13:52;;;;;;;66.70;63.33;;;;;;;;;;5500118;26;20047;-68
2024/04/20 10:16:40;;;;;;;79.57;75.55;;;;;;;;;;5501758;26;20006;-68
2024/04/20 10:19:39;;;;;;;71.07;67.53;;;;;;;;;;5503872;26;20673;-69
2024/04/20 10:22:25;;;;;;;74.43;70.65;;;;;;;;;;5500422;26;20033;-68
2024/04/20 10:25:10;;;;;;;66.13;62.78;;;;;;;;;;5490157;26;19997;-68
2024/04/20 10:27:56;;;;;;;80.03;76.05;;;;;;;;;;5500546;26;20021;-68
2024/04/20 10:30:52;;;;;;;74.95;71.22;;;;;;;;;;5497440;26;20448;-70
2024/04/20 10:33:41;;;;;;;67.10;63.70;;;;;;;;;;5501721;26;20009;-67
2024/04/20 10:36:27;;;;;;;60.30;57.25;;;;;;;;;;5501869;26;20010;-65
2024/04/20 10:39:13;;;;;;;78.15;74.25;;;;;;;;;;5469008;26;20439;-66
2024/04/20 10:42:10;;;;;;;67.85;64.43;;;;;;;;;;5472462;26;20010;-67
2024/04/20 10:45:10;;;;;;;72.57;68.95;;;;;;;;;;5467662;26;20002;-70
2024/04/20 10:47:58;;;;;;;82.28;78.18;;;;;;;;;;5489241;26;20708;-66
2024/04/20 10:50:43;;;;;;;82.85;78.75;;;;;;;;;;5489840;26;20001;-67
2024/04/20 10:53:29;;;;;;;67.30;63.92;;;;;;;;;;5492663;26;20490;-68
2024/04/20 10:56:15;;;;;;;73.45;69.80;;;;;;;;;;5466788;25;19993;-68
2024/04/20 10:59:04;;;;;;;73.65;69.97;;;;;;;;;;5509536;25;20673;-68
2024/04/20 11:01:49;;;;;;;80.72;76.72;;;;;;;;;;5510674;25;20009;-68
2024/04/20 11:04:35;;;;;;;89.60;85.13;;;;;;;;;;5509386;25;20590;-68
2024/04/20 11:07:21;;;;;;;86.35;82.07;;;;;;;;;;5507288;25;20005;-66
2024/04/20 11:10:06;;;;;;;77.05;73.22;;;;;;;;;;5508848;25;20033;-66
2024/04/20 11:13:00;;;;;;;85.45;81.22;;;;;;;;;;5510052;25;20001;-67
2024/04/20 11:15:46;;;;;;;74.93;71.15;;;;;;;;;;5509163;25;20549;-66
2024/04/20 11:18:33;;;;;;;84.30;80.15;;;;;;;;;;5492917;25;19998;-66
2024/04/20 11:21:19;;;;;;;72.60;68.88;;;;;;;;;;5494556;25;20024;-66
2024/04/20 11:24:05;;;;;;;61.90;58.80;;;;;;;;;;5494788;25;20392;-67
2024/04/20 11:27:09;;;;;;;60.97;57.90;;;;;;;;;;5502772;26;19998;-67
2024/04/20 11:29:56;;;;;;;63.00;59.83;;;;;;;;;;5495526;26;20521;-67
2024/04/20 11:32:43;;;;;;;116.55;110.78;;;;;;;;;;5500937;25;20008;-67
2024/04/20 11:35:29;;;;;;;132.05;125.55;;;;;;;;;;5494721;25;20054;-66
2024/04/20 11:38:15;;;;;;;70.82;67.30;;;;;;;;;;5477358;26;20005;-69
2024/04/20 11:41:01;;;;;;;74.65;70.85;;;;;;;;;;5494157;25;20002;-68
2024/04/20 11:43:47;;;;;;;132.38;125.75;;;;;;;;;;5498448;26;20509;-66
2024/04/20 11:46:39;;;;;;;163.60;155.50;;;;;;;;;;5502400;26;20591;-63
2024/04/20 11:49:25;;;;;;;121.70;115.63;;;;;;;;;;5501806;25;20005;-64
2024/04/20 11:55:15;;;;;;;162.32;154.30;;;;;;;;;;5500712;26;20005;-64
2024/04/20 11:58:00;;;;;;;103.65;98.53;;;;;;;;;;5496085;26;20012;-65
2024/04/20 12:00:47;;;;;;;154.35;146.70;;;;;;;;;;5496479;26;20467;-67
2024/04/20 12:03:33;;;;;;;147.07;139.68;;;;;;;;;;5498133;25;20025;-66
2024/04/20 12:06:20;;;;;;;82.45;78.32;;;;;;;;;;5476871;26;20125;-65
2024/04/20 12:09:06;;;;;;;79.53;75.50;;;;;;;;;;5500265;26;20119;-66
2024/04/20 12:11:52;;;;;;;63.47;60.10;;;;;;;;;;5496689;26;20009;-66
2024/04/20 12:14:38;;;;;;;60.20;57.20;;;;;;;;;;5498684;25;19997;-66
2024/04/20 12:17:23;;;;;;;58.10;55.17;;;;;;;;;;5499329;25;20020;-68
2024/04/20 12:20:12;;;;;;;69.05;65.65;;;;;;;;;;5495211;25;20034;-66
2024/04/20 12:22:57;;;;;;;66.10;62.65;;;;;;;;;;5497562;26;20012;-66
2024/04/20 12:25:50;;;;;;;69.65;66.18;;;;;;;;;;5471492;26;20025;-66
2024/04/20 12:28:36;;;;;;;60.05;57.05;;;;;;;;;;5499839;26;20085;-68
2024/04/20 12:31:22;;;;;;;88.22;83.88;;;;;;;;;;5497460;26;20043;-66
2024/04/20 12:34:09;;;;;;;56.13;53.15;;;;;;;;;;5493855;26;20026;-68
2024/04/20 12:36:54;;;;;;;56.97;54.10;;;;;;;;;;5492503;26;20063;-70
2024/04/20 12:39:40;;;;;;;50.72;48.17;;;;;;;;;;5468601;26;20430;-69
2024/04/20 12:42:28;;;;;;;34.97;33.17;;;;;;;;;;5500964;26;20692;-69
2024/04/20 12:45:14;;;;;;;33.42;31.73;;;;;;;;;;5501023;26;20006;-69
2024/04/20 12:48:00;;;;;;;36.45;34.55;;;;;;;;;;5494957;26;19997;-68
2024/04/20 12:50:46;;;;;;;42.55;40.40;;;;;;;;;;5498485;26;20081;-67
2024/04/20 12:53:32;;;;;;;54.83;52.08;;;;;;;;;;5497442;25;20092;-68
2024/04/20 12:56:17;;;;;;;56.22;53.40;;;;;;;;;;5498368;26;20013;-68
2024/04/20 12:59:06;;;;;;;66.85;63.50;;;;;;;;;;5474470;26;19997;-67
2024/04/20 13:01:52;;;;;;;74.72;71.00;;;;;;;;;;5498779;25;20113;-67
2024/04/20 13:04:38;;;;;;;73.15;69.53;;;;;;;;;;5500776;25;20013;-68
2024/04/20 13:07:23;;;;;;;68.97;65.50;;;;;;;;;;5496655;25;20078;-67
2024/04/20 13:10:09;;;;;;;59.92;56.92;;;;;;;;;;5497851;25;20060;-68
2024/04/20 13:12:55;;;;;;;49.13;46.67;;;;;;;;;;5498260;26;20318;-68
2024/04/20 13:15:40;;;;;;;53.15;50.47;;;;;;;;;;5473126;26;20408;-67
2024/04/20 13:18:26;;;;;;;51.75;49.15;;;;;;;;;;5503409;25;20761;-67
2024/04/20 13:21:12;;;;;;;59.47;56.47;;;;;;;;;;5492625;26;20397;-67
2024/04/20 13:23:58;;;;;;;55.65;52.85;;;;;;;;;;5497869;26;20521;-67
2024/04/20 13:26:43;;;;;;;59.13;56.13;;;;;;;;;;5469844;26;20002;-67
2024/04/20 13:29:29;;;;;;;66.38;63.05;;;;;;;;;;5496679;26;20020;-67
2024/04/20 13:32:15;;;;;;;53.78;51.08;;;;;;;;;;5500469;26;20006;-68
2024/04/20 13:35:00;;;;;;;57.63;54.75;;;;;;;;;;5498048;26;20009;-68
2024/04/20 13:37:46;;;;;;;39.83;37.83;;;;;;;;;;5469090;26;20078;-68
2024/04/20 13:40:33;;;;;;;29.77;28.25;;;;;;;;;;5500110;26;20025;-68
2024/04/20 13:43:19;;;;;;;37.65;35.65;;;;;;;;;;5501400;26;20102;-68
2024/04/20 13:46:09;;;;;;;48.60;46.13;;;;;;;;;;5498436;26;20054;-68
2024/04/20 13:48:56;;;;;;;40.05;37.97;;;;;;;;;;5496347;26;21686;-67
2024/04/20 13:51:42;;;;;;;34.42;32.65;;;;;;;;;;5501472;26;20515;-67
2024/04/20 13:54:29;;;;;;;30.10;28.50;;;;;;;;;;5498021;26;20057;-67
2024/04/20 13:57:15;;;;;;;29.40;27.80;;;;;;;;;;5500915;26;20014;-67
2024/04/20 14:00:01;;;;;;;26.58;25.17;;;;;;;;;;5496215;26;20020;-67
2024/04/20 14:02:46;;;;;;;28.75;27.25;;;;;;;;;;5497097;26;20017;-67
2024/04/20 14:05:32;;;;;;;61.60;58.50;;;;;;;;;;5497726;26;20355;-67
2024/04/20 14:08:18;;;;;;;74.18;70.47;;;;;;;;;;5466725;26;20002;-67
2024/04/20 14:11:04;;;;;;;40.60;38.50;;;;;;;;;;5498810;26;19997;-66
2024/04/20 14:13:50;;;;;;;62.90;59.78;;;;;;;;;;5467627;26;20067;-67
2024/04/20 14:16:35;;;;;;;51.08;48.50;;;;;;;;;;5499933;26;20069;-67
2024/04/20 14:19:21;;;;;;;36.10;34.25;;;;;;;;;;5499338;26;20511;-67
2024/04/20 14:22:07;;;;;;;84.10;79.95;;;;;;;;;;5492219;26;20050;-67
2024/04/20 14:24:53;;;;;;;53.50;50.80;;;;;;;;;;5495919;26;20037;-67
2024/04/20 14:27:42;;;;;;;54.95;52.15;;;;;;;;;;5494968;25;20037;-67
2024/04/20 14:30:28;;;;;;;80.07;76.13;;;;;;;;;;5494138;26;20009;-67
2024/04/20 14:33:13;;;;;;;115.57;109.90;;;;;;;;;;5473449;26;20009;-67
2024/04/20 14:36:00;;;;;;;69.43;66.00;;;;;;;;;;5466766;26;20040;-67
2024/04/20 14:38:46;;;;;;;47.72;45.33;;;;;;;;;;5496946;26;20042;-67
2024/04/20 14:41:32;;;;;;;102.45;97.40;;;;;;;;;;5502339;25;20700;-67
2024/04/20 14:44:17;;;;;;;88.05;83.68;;;;;;;;;;5471809;25;20008;-67
2024/04/20 14:47:03;;;;;;;89.43;85.00;;;;;;;;;;5501154;26;19994;-67
2024/04/20 14:49:49;;;;;;;63.85;60.65;;;;;;;;;;5504898;26;20006;-68
2024/04/20 14:52:34;;;;;;;161.38;153.30;;;;;;;;;;5497654;25;19999;-68
2024/04/20 14:55:20;;;;;;;137.38;130.57;;;;;;;;;;5503481;25;20020;-67
2024/04/20 14:58:06;;;;;;;32.00;30.35;;;;;;;;;;5503084;25;20045;-68
2024/04/20 15:00:56;;;;;;;106.38;101.13;;;;;;;;;;5479414;26;20013;-67
2024/04/20 15:03:41;;;;;;;121.97;115.95;;;;;;;;;;5504008;25;20009;-67
2024/04/20 15:06:27;;;;;;;85.45;81.25;;;;;;;;;;5495188;25;20049;-67
2024/04/20 15:09:13;;;;;;;98.95;94.07;;;;;;;;;;5469283;26;20043;-67
2024/04/20 15:12:11;;;;;;;54.85;52.05;;;;;;;;;;5501437;26;20008;-67
2024/04/20 15:14:56;;;;;;;35.53;33.72;;;;;;;;;;5497395;26;20001;-67
2024/04/20 15:17:42;;;;;;;29.60;28.08;;;;;;;;;;5497256;26;20013;-67
2024/04/20 15:20:31;;;;;;;29.52;28.00;;;;;;;;;;5502920;26;20006;-67
2024/04/20 15:23:17;;;;;;;31.08;29.48;;;;;;;;;;5495314;26;20010;-67
2024/04/20 15:26:02;;;;;;;35.30;33.47;;;;;;;;;;5499165;25;20001;-67
2024/04/20 15:28:50;;;;;;;42.10;39.92;;;;;;;;;;5499944;26;20010;-67
2024/04/20 15:31:37;;;;;;;44.42;42.17;;;;;;;;;;5500294;26;20057;-67
2024/04/20 15:34:22;;;;;;;51.65;49.05;;;;;;;;;;5501505;26;20072;-67
2024/04/20 15:37:08;;;;;;;55.72;52.92;;;;;;;;;;5511171;25;20670;-67
2024/04/20 15:39:54;;;;;;;50.05;47.50;;;;;;;;;;5511626;25;20020;-67
2024/04/20 15:42:39;;;;;;;60.55;57.53;;;;;;;;;;5509620;25;20019;-66
2024/04/20 15:45:25;;;;;;;59.15;56.17;;;;;;;;;;5478293;25;20012;-67
2024/04/20 15:48:11;;;;;;;55.90;53.10;;;;;;;;;;5515315;25;20013;-65
2024/04/20 15:50:58;;;;;;;56.63;53.80;;;;;;;;;;5508851;25;20017;-66
2024/04/20 15:53:44;;;;;;;53.58;50.88;;;;;;;;;;5511001;25;20012;-66
2024/04/20 15:56:29;;;;;;;48.80;45.65;;;;;;;;;;5483607;25;21046;-66
2024/04/20 15:59:15;;;;;;;47.00;44.60;;;;;;;;;;5511278;25;20008;-66
2024/04/20 16:02:03;;;;;;;42.65;40.50;;;;;;;;;;5512512;25;19998;-66
2024/04/20 16:04:50;;;;;;;46.80;44.40;;;;;;;;;;5510521;25;20009;-66
2024/04/20 16:07:36;;;;;;;49.45;46.92;;;;;;;;;;5499399;26;20006;-66